sensor_id;sensor_type;location;lat;lon;timestamp;pressure;altitude;pressure_sealevel;temperature;humidity
4590;BME280;2307;48.448;9.216;2023-03-21T00:00:28;95608.09;;;9.75;100.00
4590;BME280;2307;48.448;9.216;2023-03-21T00:02:55;95607.88;;;9.76;100.00
4590;BME280;2307;48.448;9.216;2023-03-21T00:05:22;95610.69;;;9.63;100.00
4590;BME280;2307;48.448;9.216;2023-03-21T00:07:48;95601.50;;;9.66;100.00
4590;BME280;2307;48.448;9.216;2023-03-21T00:10:15;95604.03;;;9.42;100.00
4590;BME280;2307;48.448;9.216;2023-03-21T00:12:41;95612.28;;;9.34;100.00
4590;BME280;2307;48.448;9.216;2023-03-21T00:15:08;95599.66;;;9.36;100.00
4590;BME280;2307;48.448;9.216;2023-03-21T00:17:35;95595.47;;;9.47;100.00
4590;BME280;2307;48.448;9.216;2023-03-21T00:20:05;95587.94;;;9.50;100.00
4590;BME280;2307;48.448;9.216;2023-03-21T00:22:39;95600.84;;;9.40;100.00
4590;BME280;2307;48.448;9.216;2023-03-21T00:25:06;95593.44;;;9.31;100.00
4590;BME280;2307;48.448;9.216;2023-03-21T00:27:34;95588.53;;;9.34;100.00
4590;BME280;2307;48.448;9.216;2023-03-21T00:30:00;95588.59;;;9.46;100.00
4590;BME280;2307;48.448;9.216;2023-03-21T00:32:26;95587.09;;;9.38;100.00
4590;BME280;2307;48.448;9.216;2023-03-21T00:34:53;95581.97;;;9.55;100.00
4590;BME280;2307;48.448;9.216;2023-03-21T00:37:21;95581.88;;;9.61;100.00
4590;BME280;2307;48.448;9.216;2023-03-21T00:39:47;95578.59;;;9.66;100.00
4590;BME280;2307;48.448;9.216;2023-03-21T00:42:14;95585.38;;;9.74;100.00
4590;BME280;2307;48.448;9.216;2023-03-21T00:44:40;95579.63;;;9.77;100.00
4590;BME280;2307;48.448;9.216;2023-03-21T00:47:07;95567.59;;;9.69;100.00
4590;BME280;2307;48.448;9.216;2023-03-21T00:49:33;95572.59;;;9.59;100.00
4590;BME280;2307;48.448;9.216;2023-03-21T00:52:03;95570.63;;;9.54;100.00
4590;BME280;2307;48.448;9.216;2023-03-21T00:54:32;95564.38;;;9.37;100.00
4590;BME280;2307;48.448;9.216;2023-03-21T00:56:58;95569.00;;;9.24;100.00
4590;BME280;2307;48.448;9.216;2023-03-21T00:59:25;95569.94;;;9.29;100.00
4590;BME280;2307;48.448;9.216;2023-03-21T01:01:52;95564.53;;;9.24;100.00
4590;BME280;2307;48.448;9.216;2023-03-21T01:04:18;95565.78;;;9.22;100.00
4590;BME280;2307;48.448;9.216;2023-03-21T01:06:45;95560.59;;;9.15;100.00
4590;BME280;2307;48.448;9.216;2023-03-21T01:09:13;95562.16;;;9.23;100.00
4590;BME280;2307;48.448;9.216;2023-03-21T01:11:42;95561.50;;;9.39;100.00
4590;BME280;2307;48.448;9.216;2023-03-21T01:14:08;95558.25;;;9.25;100.00
4590;BME280;2307;48.448;9.216;2023-03-21T01:16:35;95554.84;;;9.36;100.00
4590;BME280;2307;48.448;9.216;2023-03-21T01:19:02;95558.22;;;9.43;100.00
4590;BME280;2307;48.448;9.216;2023-03-21T01:21:28;95561.47;;;9.57;100.00
4590;BME280;2307;48.448;9.216;2023-03-21T01:23:55;95558.31;;;9.67;100.00
4590;BME280;2307;48.448;9.216;2023-03-21T01:26:22;95548.00;;;9.77;100.00
4590;BME280;2307;48.448;9.216;2023-03-21T01:28:49;95551.53;;;9.71;100.00
4590;BME280;2307;48.448;9.216;2023-03-21T01:31:16;95545.03;;;9.73;100.00
4590;BME280;2307;48.448;9.216;2023-03-21T01:33:42;95553.84;;;9.67;100.00
4590;BME280;2307;48.448;9.216;2023-03-21T01:36:10;95554.53;;;9.74;100.00
4590;BME280;2307;48.448;9.216;2023-03-21T01:38:39;95544.81;;;9.45;100.00
4590;BME280;2307;48.448;9.216;2023-03-21T01:41:05;95547.31;;;9.40;100.00
4590;BME280;2307;48.448;9.216;2023-03-21T01:43:32;95544.69;;;9.51;100.00
4590;BME280;2307;48.448;9.216;2023-03-21T01:46:19;95536.03;;;9.63;100.00
4590;BME280;2307;48.448;9.216;2023-03-21T01:48:46;95541.84;;;9.53;100.00
4590;BME280;2307;48.448;9.216;2023-03-21T01:51:14;95543.84;;;9.57;100.00
4590;BME280;2307;48.448;9.216;2023-03-21T01:53:40;95538.75;;;9.44;100.00
4590;BME280;2307;48.448;9.216;2023-03-21T01:56:08;95543.28;;;9.37;100.00
4590;BME280;2307;48.448;9.216;2023-03-21T01:58:36;95540.03;;;9.53;100.00
4590;BME280;2307;48.448;9.216;2023-03-21T02:01:03;95536.75;;;9.70;100.00
4590;BME280;2307;48.448;9.216;2023-03-21T02:03:31;95531.03;;;9.73;100.00
4590;BME280;2307;48.448;9.216;2023-03-21T02:06:03;95534.13;;;9.70;100.00
4590;BME280;2307;48.448;9.216;2023-03-21T02:08:32;95530.75;;;9.63;100.00
4590;BME280;2307;48.448;9.216;2023-03-21T02:10:59;95530.41;;;9.59;100.00
4590;BME280;2307;48.448;9.216;2023-03-21T02:13:25;95526.22;;;9.70;100.00
4590;BME280;2307;48.448;9.216;2023-03-21T02:15:53;95528.16;;;9.74;100.00
4590;BME280;2307;48.448;9.216;2023-03-21T02:18:23;95523.75;;;9.56;100.00
4590;BME280;2307;48.448;9.216;2023-03-21T02:23:48;95523.59;;;9.51;100.00
4590;BME280;2307;48.448;9.216;2023-03-21T02:29:02;95520.75;;;9.23;100.00
4590;BME280;2307;48.448;9.216;2023-03-21T02:31:35;95516.47;;;9.40;100.00
4590;BME280;2307;48.448;9.216;2023-03-21T02:34:12;95508.13;;;9.43;100.00
4590;BME280;2307;48.448;9.216;2023-03-21T02:36:50;95512.03;;;9.52;100.00
4590;BME280;2307;48.448;9.216;2023-03-21T02:39:19;95505.09;;;9.28;100.00
4590;BME280;2307;48.448;9.216;2023-03-21T02:41:51;95502.53;;;9.51;100.00
4590;BME280;2307;48.448;9.216;2023-03-21T02:44:20;95507.59;;;9.53;100.00
4590;BME280;2307;48.448;9.216;2023-03-21T02:46:49;95503.50;;;9.69;100.00
4590;BME280;2307;48.448;9.216;2023-03-21T02:49:18;95498.78;;;9.59;100.00
4590;BME280;2307;48.448;9.216;2023-03-21T02:51:46;95501.06;;;9.55;100.00
4590;BME280;2307;48.448;9.216;2023-03-21T02:54:16;95506.47;;;9.60;100.00
4590;BME280;2307;48.448;9.216;2023-03-21T02:56:43;95501.13;;;9.37;100.00
4590;BME280;2307;48.448;9.216;2023-03-21T02:59:11;95505.38;;;9.38;100.00
4590;BME280;2307;48.448;9.216;2023-03-21T03:01:37;95505.38;;;9.38;100.00
4590;BME280;2307;48.448;9.216;2023-03-21T03:04:15;95514.59;;;9.29;100.00
4590;BME280;2307;48.448;9.216;2023-03-21T03:06:43;95509.28;;;9.47;100.00
4590;BME280;2307;48.448;9.216;2023-03-21T03:09:16;95509.88;;;9.49;100.00
4590;BME280;2307;48.448;9.216;2023-03-21T03:11:49;95507.56;;;9.41;100.00
4590;BME280;2307;48.448;9.216;2023-03-21T03:16:59;95506.66;;;9.18;100.00
4590;BME280;2307;48.448;9.216;2023-03-21T03:19:29;95510.50;;;9.33;100.00
4590;BME280;2307;48.448;9.216;2023-03-21T03:21:58;95505.50;;;9.43;100.00
4590;BME280;2307;48.448;9.216;2023-03-21T03:24:28;95508.97;;;9.55;100.00
4590;BME280;2307;48.448;9.216;2023-03-21T03:26:57;95512.13;;;9.46;100.00
4590;BME280;2307;48.448;9.216;2023-03-21T03:29:25;95505.50;;;9.55;100.00
4590;BME280;2307;48.448;9.216;2023-03-21T03:31:54;95508.59;;;9.52;100.00
4590;BME280;2307;48.448;9.216;2023-03-21T03:34:23;95505.31;;;9.56;100.00
4590;BME280;2307;48.448;9.216;2023-03-21T03:36:52;95500.56;;;9.47;100.00
4590;BME280;2307;48.448;9.216;2023-03-21T03:39:21;95500.09;;;9.38;100.00
4590;BME280;2307;48.448;9.216;2023-03-21T03:41:52;95496.06;;;9.36;100.00
4590;BME280;2307;48.448;9.216;2023-03-21T03:44:20;95499.06;;;9.39;100.00
4590;BME280;2307;48.448;9.216;2023-03-21T03:46:47;95503.59;;;9.32;100.00
4590;BME280;2307;48.448;9.216;2023-03-21T03:49:16;95495.22;;;9.24;100.00
4590;BME280;2307;48.448;9.216;2023-03-21T03:51:47;95487.63;;;9.16;100.00
4590;BME280;2307;48.448;9.216;2023-03-21T03:54:16;95491.19;;;9.21;100.00
4590;BME280;2307;48.448;9.216;2023-03-21T03:56:45;95487.31;;;9.24;100.00
4590;BME280;2307;48.448;9.216;2023-03-21T03:59:14;95487.09;;;9.25;100.00
4590;BME280;2307;48.448;9.216;2023-03-21T04:01:43;95479.94;;;9.14;100.00
4590;BME280;2307;48.448;9.216;2023-03-21T04:04:09;95487.63;;;9.16;100.00
4590;BME280;2307;48.448;9.216;2023-03-21T04:06:37;95476.09;;;9.28;100.00
4590;BME280;2307;48.448;9.216;2023-03-21T04:09:03;95476.84;;;9.17;100.00
4590;BME280;2307;48.448;9.216;2023-03-21T04:11:31;95477.19;;;9.09;100.00
4590;BME280;2307;48.448;9.216;2023-03-21T04:13:58;95475.00;;;9.06;100.00
4590;BME280;2307;48.448;9.216;2023-03-21T04:16:25;95474.84;;;9.01;100.00
4590;BME280;2307;48.448;9.216;2023-03-21T04:18:52;95468.88;;;8.94;100.00
4590;BME280;2307;48.448;9.216;2023-03-21T04:21:18;95467.63;;;8.96;100.00
4590;BME280;2307;48.448;9.216;2023-03-21T04:23:45;95472.75;;;8.91;100.00
4590;BME280;2307;48.448;9.216;2023-03-21T04:26:12;95474.59;;;8.91;100.00
4590;BME280;2307;48.448;9.216;2023-03-21T04:28:38;95474.84;;;8.71;100.00
4590;BME280;2307;48.448;9.216;2023-03-21T04:31:05;95468.44;;;8.79;100.00
4590;BME280;2307;48.448;9.216;2023-03-21T04:33:33;95471.34;;;8.89;100.00
4590;BME280;2307;48.448;9.216;2023-03-21T04:36:02;95476.63;;;8.89;100.00
4590;BME280;2307;48.448;9.216;2023-03-21T04:38:30;95476.78;;;8.76;100.00
4590;BME280;2307;48.448;9.216;2023-03-21T04:40:58;95475.97;;;8.75;100.00
4590;BME280;2307;48.448;9.216;2023-03-21T04:43:24;95468.06;;;8.75;100.00
4590;BME280;2307;48.448;9.216;2023-03-21T04:45:52;95472.31;;;8.76;100.00
4590;BME280;2307;48.448;9.216;2023-03-21T04:48:19;95468.69;;;8.77;100.00
4590;BME280;2307;48.448;9.216;2023-03-21T04:50:50;95468.75;;;8.71;100.00
4590;BME280;2307;48.448;9.216;2023-03-21T04:53:16;95472.03;;;8.84;100.00
4590;BME280;2307;48.448;9.216;2023-03-21T04:55:44;95471.72;;;8.92;100.00
4590;BME280;2307;48.448;9.216;2023-03-21T04:58:11;95476.69;;;9.00;100.00
4590;BME280;2307;48.448;9.216;2023-03-21T05:00:37;95477.72;;;8.99;100.00
4590;BME280;2307;48.448;9.216;2023-03-21T05:03:04;95473.69;;;8.97;100.00
4590;BME280;2307;48.448;9.216;2023-03-21T05:05:33;95473.34;;;8.93;100.00
4590;BME280;2307;48.448;9.216;2023-03-21T05:08:00;95473.69;;;8.97;100.00
4590;BME280;2307;48.448;9.216;2023-03-21T05:10:27;95476.19;;;8.92;100.00
4590;BME280;2307;48.448;9.216;2023-03-21T05:12:53;95471.69;;;8.81;100.00
4590;BME280;2307;48.448;9.216;2023-03-21T05:15:20;95469.03;;;8.81;100.00
4590;BME280;2307;48.448;9.216;2023-03-21T05:17:46;95470.91;;;8.92;100.00
4590;BME280;2307;48.448;9.216;2023-03-21T05:20:13;95470.03;;;8.98;100.00
4590;BME280;2307;48.448;9.216;2023-03-21T05:22:41;95466.53;;;8.86;100.00
4590;BME280;2307;48.448;9.216;2023-03-21T05:25:11;95470.47;;;8.95;100.00
4590;BME280;2307;48.448;9.216;2023-03-21T05:27:38;95475.72;;;8.95;100.00
4590;BME280;2307;48.448;9.216;2023-03-21T05:30:10;95476.00;;;9.05;100.00
4590;BME280;2307;48.448;9.216;2023-03-21T05:32:37;95482.28;;;9.04;100.00
4590;BME280;2307;48.448;9.216;2023-03-21T05:35:04;95481.28;;;9.05;100.00
4590;BME280;2307;48.448;9.216;2023-03-21T05:37:35;95484.59;;;9.00;100.00
4590;BME280;2307;48.448;9.216;2023-03-21T05:40:02;95487.00;;;9.02;100.00
4590;BME280;2307;48.448;9.216;2023-03-21T05:42:31;95486.78;;;9.03;100.00
4590;BME280;2307;48.448;9.216;2023-03-21T05:44:58;95486.56;;;9.05;100.00
4590;BME280;2307;48.448;9.216;2023-03-21T05:47:24;95485.25;;;8.96;100.00
4590;BME280;2307;48.448;9.216;2023-03-21T05:49:51;95496.81;;;8.95;100.00
4590;BME280;2307;48.448;9.216;2023-03-21T05:52:17;95489.31;;;8.80;100.00
4590;BME280;2307;48.448;9.216;2023-03-21T05:54:43;95485.38;;;8.71;100.00
4590;BME280;2307;48.448;9.216;2023-03-21T05:57:10;95485.28;;;8.78;100.00
4590;BME280;2307;48.448;9.216;2023-03-21T05:59:38;95491.94;;;8.80;100.00
4590;BME280;2307;48.448;9.216;2023-03-21T06:02:04;95486.31;;;8.77;100.00
4590;BME280;2307;48.448;9.216;2023-03-21T06:04:30;95477.31;;;8.66;100.00
4590;BME280;2307;48.448;9.216;2023-03-21T06:06:57;95488.00;;;8.71;100.00
4590;BME280;2307;48.448;9.216;2023-03-21T06:09:23;95486.91;;;8.61;100.00
4590;BME280;2307;48.448;9.216;2023-03-21T06:11:51;95485.81;;;8.68;100.00
4590;BME280;2307;48.448;9.216;2023-03-21T06:14:18;95486.53;;;8.57;100.00
4590;BME280;2307;48.448;9.216;2023-03-21T06:16:46;95484.63;;;8.64;100.00
4590;BME280;2307;48.448;9.216;2023-03-21T06:19:12;95483.88;;;8.57;100.00
4590;BME280;2307;48.448;9.216;2023-03-21T06:21:39;95482.00;;;8.64;100.00
4590;BME280;2307;48.448;9.216;2023-03-21T06:24:05;95480.44;;;8.57;100.00
4590;BME280;2307;48.448;9.216;2023-03-21T06:26:35;95482.19;;;8.63;100.00
4590;BME280;2307;48.448;9.216;2023-03-21T06:29:02;95473.97;;;8.59;100.00
4590;BME280;2307;48.448;9.216;2023-03-21T06:31:29;95480.16;;;8.65;100.00
4590;BME280;2307;48.448;9.216;2023-03-21T06:33:57;95485.63;;;8.63;100.00
4590;BME280;2307;48.448;9.216;2023-03-21T06:36:23;95483.38;;;8.67;100.00
4590;BME280;2307;48.448;9.216;2023-03-21T06:38:49;95475.63;;;8.72;100.00
4590;BME280;2307;48.448;9.216;2023-03-21T06:41:16;95476.78;;;8.76;100.00
4590;BME280;2307;48.448;9.216;2023-03-21T06:43:43;95476.94;;;8.81;100.00
4590;BME280;2307;48.448;9.216;2023-03-21T06:46:09;95479.16;;;8.66;100.00
4590;BME280;2307;48.448;9.216;2023-03-21T06:48:36;95477.75;;;8.63;100.00
4590;BME280;2307;48.448;9.216;2023-03-21T06:51:09;95481.84;;;8.77;100.00
4590;BME280;2307;48.448;9.216;2023-03-21T06:53:36;95480.47;;;8.75;100.00
4590;BME280;2307;48.448;9.216;2023-03-21T06:56:03;95479.41;;;8.76;100.00
4590;BME280;2307;48.448;9.216;2023-03-21T06:58:29;95468.47;;;8.61;100.00
4590;BME280;2307;48.448;9.216;2023-03-21T07:00:57;95472.09;;;8.60;100.00
4590;BME280;2307;48.448;9.216;2023-03-21T07:03:23;95473.88;;;8.66;100.00
4590;BME280;2307;48.448;9.216;2023-03-21T07:05:49;95477.66;;;8.70;100.00
4590;BME280;2307;48.448;9.216;2023-03-21T07:08:17;95480.25;;;8.58;100.00
4590;BME280;2307;48.448;9.216;2023-03-21T07:10:44;95474.91;;;8.46;100.00
4590;BME280;2307;48.448;9.216;2023-03-21T07:13:10;95476.81;;;8.39;100.00
4590;BME280;2307;48.448;9.216;2023-03-21T07:15:40;95480.91;;;8.35;100.00
4590;BME280;2307;48.448;9.216;2023-03-21T07:18:07;95483.97;;;8.50;100.00
4590;BME280;2307;48.448;9.216;2023-03-21T07:20:35;95481.47;;;8.37;100.00
4590;BME280;2307;48.448;9.216;2023-03-21T07:23:02;95479.88;;;8.36;100.00
4590;BME280;2307;48.448;9.216;2023-03-21T07:25:29;95479.00;;;8.61;100.00
4590;BME280;2307;48.448;9.216;2023-03-21T07:27:56;95481.19;;;8.45;100.00
4590;BME280;2307;48.448;9.216;2023-03-21T07:30:22;95476.50;;;8.47;100.00
4590;BME280;2307;48.448;9.216;2023-03-21T07:32:49;95471.75;;;8.38;100.00
4590;BME280;2307;48.448;9.216;2023-03-21T07:35:17;95483.97;;;8.50;100.00
4590;BME280;2307;48.448;9.216;2023-03-21T07:37:43;95479.06;;;8.54;100.00
4590;BME280;2307;48.448;9.216;2023-03-21T07:40:10;95480.31;;;8.51;100.00
4590;BME280;2307;48.448;9.216;2023-03-21T07:42:38;95478.88;;;8.56;100.00
4590;BME280;2307;48.448;9.216;2023-03-21T07:45:06;95475.06;;;8.51;100.00
4590;BME280;2307;48.448;9.216;2023-03-21T07:47:32;95479.16;;;8.66;100.00
4590;BME280;2307;48.448;9.216;2023-03-21T07:49:59;95477.38;;;8.78;100.00
4590;BME280;2307;48.448;9.216;2023-03-21T07:52:25;95474.66;;;8.66;100.00
4590;BME280;2307;48.448;9.216;2023-03-21T07:54:52;95480.16;;;8.65;100.00
4590;BME280;2307;48.448;9.216;2023-03-21T07:57:18;95485.28;;;8.78;100.00
4590;BME280;2307;48.448;9.216;2023-03-21T07:59:46;95477.31;;;8.84;100.00
4590;BME280;2307;48.448;9.216;2023-03-21T08:02:13;95489.22;;;8.87;100.00
4590;BME280;2307;48.448;9.216;2023-03-21T08:04:40;95480.13;;;9.01;100.00
4590;BME280;2307;48.448;9.216;2023-03-21T08:07:06;95470.97;;;9.03;100.00
4590;BME280;2307;48.448;9.216;2023-03-21T08:09:33;95475.38;;;9.21;100.00
4590;BME280;2307;48.448;9.216;2023-03-21T08:12:00;95467.88;;;9.36;100.00
4590;BME280;2307;48.448;9.216;2023-03-21T08:14:26;95464.94;;;9.44;100.00
4590;BME280;2307;48.448;9.216;2023-03-21T08:16:54;95458.28;;;9.53;100.00
4590;BME280;2307;48.448;9.216;2023-03-21T08:19:21;95454.97;;;9.58;100.00
4590;BME280;2307;48.448;9.216;2023-03-21T08:21:47;95458.00;;;9.85;100.00
4590;BME280;2307;48.448;9.216;2023-03-21T08:24:15;95458.69;;;9.92;100.00
4590;BME280;2307;48.448;9.216;2023-03-21T08:26:41;95455.03;;;10.04;100.00
4590;BME280;2307;48.448;9.216;2023-03-21T08:29:10;95447.13;;;10.16;100.00
4590;BME280;2307;48.448;9.216;2023-03-21T08:31:38;95444.25;;;10.29;100.00
4590;BME280;2307;48.448;9.216;2023-03-21T08:34:06;95448.03;;;10.33;100.00
4590;BME280;2307;48.448;9.216;2023-03-21T08:36:32;95440.44;;;10.48;100.00
4590;BME280;2307;48.448;9.216;2023-03-21T08:39:00;95447.66;;;10.53;100.00
4590;BME280;2307;48.448;9.216;2023-03-21T08:41:29;95446.06;;;10.52;100.00
4590;BME280;2307;48.448;9.216;2023-03-21T08:43:56;95441.75;;;10.62;100.00
4590;BME280;2307;48.448;9.216;2023-03-21T08:46:22;95443.50;;;10.69;98.75
4590;BME280;2307;48.448;9.216;2023-03-21T08:48:48;95441.63;;;10.81;97.78
4590;BME280;2307;48.448;9.216;2023-03-21T08:51:16;95439.88;;;10.86;97.30
4590;BME280;2307;48.448;9.216;2023-03-21T08:53:42;95439.34;;;11.01;100.00
4590;BME280;2307;48.448;9.216;2023-03-21T08:56:09;95436.81;;;11.06;97.39
4590;BME280;2307;48.448;9.216;2023-03-21T08:58:36;95436.19;;;11.15;100.00
4590;BME280;2307;48.448;9.216;2023-03-21T09:01:02;95429.44;;;11.08;94.83
4590;BME280;2307;48.448;9.216;2023-03-21T09:03:29;95428.03;;;11.17;91.40
4590;BME280;2307;48.448;9.216;2023-03-21T09:05:55;95435.19;;;11.33;90.50
4590;BME280;2307;48.448;9.216;2023-03-21T09:08:24;95428.22;;;11.27;88.77
4590;BME280;2307;48.448;9.216;2023-03-21T09:10:51;95433.75;;;11.42;98.07
4590;BME280;2307;48.448;9.216;2023-03-21T09:13:18;95429.66;;;11.51;100.00
4590;BME280;2307;48.448;9.216;2023-03-21T09:15:45;95430.91;;;11.60;100.00
4590;BME280;2307;48.448;9.216;2023-03-21T09:18:11;95432.47;;;11.73;100.00
4590;BME280;2307;48.448;9.216;2023-03-21T09:20:39;95435.81;;;11.85;100.00
4590;BME280;2307;48.448;9.216;2023-03-21T09:23:07;95435.09;;;11.90;96.67
4590;BME280;2307;48.448;9.216;2023-03-21T09:25:36;95433.72;;;11.87;94.74
4590;BME280;2307;48.448;9.216;2023-03-21T09:28:02;95434.22;;;12.01;99.27
4590;BME280;2307;48.448;9.216;2023-03-21T09:30:29;95434.38;;;12.11;98.75
4590;BME280;2307;48.448;9.216;2023-03-21T09:32:57;95437.13;;;12.21;97.98
4590;BME280;2307;48.448;9.216;2023-03-21T09:35:24;95440.41;;;12.28;92.59
4590;BME280;2307;48.448;9.216;2023-03-21T09:37:51;95432.56;;;12.33;92.46
4590;BME280;2307;48.448;9.216;2023-03-21T09:40:19;95446.97;;;12.42;94.09
4590;BME280;2307;48.448;9.216;2023-03-21T09:42:50;95433.91;;;12.36;96.50
4590;BME280;2307;48.448;9.216;2023-03-21T09:45:25;95440.69;;;12.48;88.32
4590;BME280;2307;48.448;9.216;2023-03-21T09:47:56;95440.53;;;12.55;85.53
4590;BME280;2307;48.448;9.216;2023-03-21T09:50:25;95436.81;;;12.56;84.89
4590;BME280;2307;48.448;9.216;2023-03-21T09:52:56;95435.63;;;12.68;87.81
4590;BME280;2307;48.448;9.216;2023-03-21T09:55:24;95437.75;;;12.66;82.32
4590;BME280;2307;48.448;9.216;2023-03-21T09:57:58;95434.41;;;12.76;84.03
4590;BME280;2307;48.448;9.216;2023-03-21T10:00:27;95435.75;;;12.78;81.02
4590;BME280;2307;48.448;9.216;2023-03-21T10:02:56;95430.09;;;12.92;80.10
4590;BME280;2307;48.448;9.216;2023-03-21T10:05:26;95430.75;;;13.04;86.29
4590;BME280;2307;48.448;9.216;2023-03-21T10:07:55;95425.19;;;13.27;86.46
4590;BME280;2307;48.448;9.216;2023-03-21T10:10:24;95423.25;;;13.44;81.60
4590;BME280;2307;48.448;9.216;2023-03-21T10:12:52;95427.84;;;13.54;83.64
4590;BME280;2307;48.448;9.216;2023-03-21T10:15:21;95420.53;;;13.66;80.12
4590;BME280;2307;48.448;9.216;2023-03-21T10:17:50;95413.09;;;13.68;80.26
4590;BME280;2307;48.448;9.216;2023-03-21T10:20:20;95410.25;;;13.79;79.39
4590;BME280;2307;48.448;9.216;2023-03-21T10:22:47;95402.97;;;14.02;75.72
4590;BME280;2307;48.448;9.216;2023-03-21T10:25:14;95408.44;;;14.22;76.63
4590;BME280;2307;48.448;9.216;2023-03-21T10:27:41;95404.84;;;14.43;73.33
4590;BME280;2307;48.448;9.216;2023-03-21T10:30:10;95408.13;;;14.55;67.74
4590;BME280;2307;48.448;9.216;2023-03-21T10:32:45;95408.66;;;14.62;69.88
4590;BME280;2307;48.448;9.216;2023-03-21T10:35:11;95403.16;;;14.79;69.10
4590;BME280;2307;48.448;9.216;2023-03-21T10:37:38;95412.22;;;14.88;66.49
4590;BME280;2307;48.448;9.216;2023-03-21T10:40:05;95404.50;;;14.81;64.05
4590;BME280;2307;48.448;9.216;2023-03-21T10:42:34;95408.56;;;15.04;62.52
4590;BME280;2307;48.448;9.216;2023-03-21T10:45:01;95403.53;;;15.03;62.22
4590;BME280;2307;48.448;9.216;2023-03-21T10:47:28;95400.84;;;15.08;61.18
4590;BME280;2307;48.448;9.216;2023-03-21T10:49:58;95400.09;;;15.17;63.25
4590;BME280;2307;48.448;9.216;2023-03-21T10:52:26;95396.94;;;15.46;61.94
4590;BME280;2307;48.448;9.216;2023-03-21T10:55:02;95402.06;;;15.72;62.29
4590;BME280;2307;48.448;9.216;2023-03-21T10:57:30;95400.44;;;15.81;58.11
4590;BME280;2307;48.448;9.216;2023-03-21T10:59:57;95403.09;;;15.97;58.88
4590;BME280;2307;48.448;9.216;2023-03-21T11:02:25;95399.38;;;15.98;57.86
4590;BME280;2307;48.448;9.216;2023-03-21T11:04:53;95404.72;;;15.87;57.70
4590;BME280;2307;48.448;9.216;2023-03-21T11:07:22;95406.81;;;15.95;59.68
4590;BME280;2307;48.448;9.216;2023-03-21T11:09:52;95408.41;;;16.17;57.30
4590;BME280;2307;48.448;9.216;2023-03-21T11:12:27;95403.03;;;16.27;54.52
4590;BME280;2307;48.448;9.216;2023-03-21T11:14:54;95406.78;;;16.26;57.27
4590;BME280;2307;48.448;9.216;2023-03-21T11:17:22;95402.03;;;16.08;57.29
4590;BME280;2307;48.448;9.216;2023-03-21T11:19:49;95391.06;;;16.29;57.59
4590;BME280;2307;48.448;9.216;2023-03-21T11:22:16;95395.28;;;16.40;54.79
4590;BME280;2307;48.448;9.216;2023-03-21T11:24:46;95396.59;;;16.43;53.19
4590;BME280;2307;48.448;9.216;2023-03-21T11:27:14;95391.50;;;16.62;54.38
4590;BME280;2307;48.448;9.216;2023-03-21T11:29:43;95388.84;;;16.62;52.75
4590;BME280;2307;48.448;9.216;2023-03-21T11:32:12;95392.34;;;16.47;55.43
4590;BME280;2307;48.448;9.216;2023-03-21T11:34:41;95390.28;;;16.19;58.38
4590;BME280;2307;48.448;9.216;2023-03-21T11:37:16;95384.66;;;16.35;56.41
4590;BME280;2307;48.448;9.216;2023-03-21T11:39:43;95386.81;;;16.08;54.25
4590;BME280;2307;48.448;9.216;2023-03-21T11:44:57;95384.38;;;16.32;54.35
4590;BME280;2307;48.448;9.216;2023-03-21T11:47:25;95390.00;;;16.25;54.20
4590;BME280;2307;48.448;9.216;2023-03-21T11:49:52;95386.56;;;16.20;55.44
4590;BME280;2307;48.448;9.216;2023-03-21T11:52:22;95381.78;;;15.97;54.76
4590;BME280;2307;48.448;9.216;2023-03-21T11:55:01;95379.09;;;16.17;55.45
4590;BME280;2307;48.448;9.216;2023-03-21T11:57:31;95378.00;;;16.28;55.01
4590;BME280;2307;48.448;9.216;2023-03-21T12:00:04;95364.72;;;16.13;57.61
4590;BME280;2307;48.448;9.216;2023-03-21T12:02:40;95367.59;;;16.31;57.17
4590;BME280;2307;48.448;9.216;2023-03-21T12:05:14;95361.19;;;16.32;54.14
4590;BME280;2307;48.448;9.216;2023-03-21T12:07:46;95355.31;;;16.40;55.44
4590;BME280;2307;48.448;9.216;2023-03-21T12:10:35;95350.06;;;16.20;56.92
4590;BME280;2307;48.448;9.216;2023-03-21T12:15:53;95338.38;;;16.01;59.04
4590;BME280;2307;48.448;9.216;2023-03-21T12:18:28;95336.72;;;16.20;57.69
4590;BME280;2307;48.448;9.216;2023-03-21T12:20:58;95336.97;;;16.19;55.99
4590;BME280;2307;48.448;9.216;2023-03-21T12:23:28;95331.88;;;16.32;56.20
4590;BME280;2307;48.448;9.216;2023-03-21T12:26:02;95330.22;;;16.46;56.66
4590;BME280;2307;48.448;9.216;2023-03-21T12:28:32;95326.75;;;16.51;56.04
4590;BME280;2307;48.448;9.216;2023-03-21T12:31:07;95326.19;;;16.59;54.00
4590;BME280;2307;48.448;9.216;2023-03-21T12:33:41;95319.75;;;16.70;54.58
4590;BME280;2307;48.448;9.216;2023-03-21T12:36:12;95320.31;;;16.62;55.58
4590;BME280;2307;48.448;9.216;2023-03-21T12:38:45;95324.63;;;16.48;55.21
4590;BME280;2307;48.448;9.216;2023-03-21T12:41:21;95323.78;;;16.68;58.01
4590;BME280;2307;48.448;9.216;2023-03-21T12:43:49;95319.72;;;16.80;56.22
4590;BME280;2307;48.448;9.216;2023-03-21T12:46:21;95314.47;;;16.50;57.09
4590;BME280;2307;48.448;9.216;2023-03-21T12:48:50;95317.34;;;16.69;57.15
4590;BME280;2307;48.448;9.216;2023-03-21T12:51:18;95319.75;;;16.70;57.57
4590;BME280;2307;48.448;9.216;2023-03-21T12:53:47;95320.34;;;16.57;56.87
4590;BME280;2307;48.448;9.216;2023-03-21T12:56:17;95315.53;;;16.49;57.87
4590;BME280;2307;48.448;9.216;2023-03-21T12:58:47;95316.34;;;16.60;59.07
4590;BME280;2307;48.448;9.216;2023-03-21T13:01:14;95313.81;;;16.83;58.46
4590;BME280;2307;48.448;9.216;2023-03-21T13:03:43;95307.53;;;16.64;56.84
4590;BME280;2307;48.448;9.216;2023-03-21T13:06:15;95310.31;;;16.88;58.76
4590;BME280;2307;48.448;9.216;2023-03-21T13:08:44;95313.53;;;16.90;59.26
4590;BME280;2307;48.448;9.216;2023-03-21T13:11:12;95308.66;;;17.36;54.61
4590;BME280;2307;48.448;9.216;2023-03-21T13:13:41;95306.78;;;17.70;54.93
4590;BME280;2307;48.448;9.216;2023-03-21T13:16:10;95301.88;;;17.48;54.00
4590;BME280;2307;48.448;9.216;2023-03-21T13:18:40;95300.38;;;17.71;54.67
4590;BME280;2307;48.448;9.216;2023-03-21T13:21:11;95296.56;;;18.06;52.40
4590;BME280;2307;48.448;9.216;2023-03-21T13:23:44;95297.00;;;18.37;50.25
4590;BME280;2307;48.448;9.216;2023-03-21T13:26:20;95287.16;;;18.56;53.17
4590;BME280;2307;48.448;9.216;2023-03-21T13:28:46;95289.72;;;18.66;49.59
4590;BME280;2307;48.448;9.216;2023-03-21T13:31:17;95283.22;;;18.72;47.63
4590;BME280;2307;48.448;9.216;2023-03-21T13:33:44;95272.81;;;18.89;47.61
4590;BME280;2307;48.448;9.216;2023-03-21T13:36:13;95275.50;;;18.71;47.80
4590;BME280;2307;48.448;9.216;2023-03-21T13:38:40;95264.25;;;18.50;47.78
4590;BME280;2307;48.448;9.216;2023-03-21T13:41:08;95270.28;;;18.61;47.90